sensor_id;sensor_type;location;lat;lon;timestamp;P1;durP1;ratioP1;P2;durP2;ratioP2
51981;SDS011;37998;53.416;6.730;2023-11-21T00:00:19;28.30;;;7.10;;
51981;SDS011;37998;53.416;6.730;2023-11-21T00:02:45;26.10;;;6.60;;
51981;SDS011;37998;53.416;6.730;2023-11-21T00:05:11;20.13;;;6.32;;
51981;SDS011;37998;53.416;6.730;2023-11-21T00:07:39;27.13;;;6.75;;
51981;SDS011;37998;53.416;6.730;2023-11-21T00:10:06;28.40;;;6.28;;
51981;SDS011;37998;53.416;6.730;2023-11-21T00:12:36;24.70;;;6.88;;
51981;SDS011;37998;53.416;6.730;2023-11-21T00:15:02;30.25;;;7.55;;
51981;SDS011;37998;53.416;6.730;2023-11-21T00:17:30;20.30;;;6.40;;
51981;SDS011;37998;53.416;6.730;2023-11-21T00:19:56;23.77;;;5.78;;
51981;SDS011;37998;53.416;6.730;2023-11-21T00:22:22;27.08;;;7.00;;
51981;SDS011;37998;53.416;6.730;2023-11-21T00:24:48;25.02;;;7.13;;
51981;SDS011;37998;53.416;6.730;2023-11-21T00:27:14;31.40;;;6.70;;
51981;SDS011;37998;53.416;6.730;2023-11-21T00:29:40;25.52;;;6.63;;
51981;SDS011;37998;53.416;6.730;2023-11-21T00:32:06;23.73;;;6.45;;
51981;SDS011;37998;53.416;6.730;2023-11-21T00:34:32;30.70;;;7.00;;
51981;SDS011;37998;53.416;6.730;2023-11-21T00:37:00;23.10;;;6.20;;
51981;SDS011;37998;53.416;6.730;2023-11-21T00:39:25;21.55;;;6.57;;
51981;SDS011;37998;53.416;6.730;2023-11-21T00:41:51;28.25;;;6.40;;
51981;SDS011;37998;53.416;6.730;2023-11-21T00:44:18;23.05;;;7.20;;
51981;SDS011;37998;53.416;6.730;2023-11-21T00:46:44;30.05;;;7.35;;
51981;SDS011;37998;53.416;6.730;2023-11-21T00:49:10;26.83;;;6.22;;
51981;SDS011;37998;53.416;6.730;2023-11-21T00:51:36;24.20;;;6.63;;
51981;SDS011;37998;53.416;6.730;2023-11-21T00:54:02;21.42;;;6.88;;
51981;SDS011;37998;53.416;6.730;2023-11-21T00:56:28;24.38;;;6.32;;
51981;SDS011;37998;53.416;6.730;2023-11-21T00:58:54;28.38;;;6.78;;
51981;SDS011;37998;53.416;6.730;2023-11-21T01:01:20;27.17;;;6.10;;
51981;SDS011;37998;53.416;6.730;2023-11-21T01:03:49;20.50;;;6.65;;
51981;SDS011;37998;53.416;6.730;2023-11-21T01:06:16;26.73;;;6.47;;
51981;SDS011;37998;53.416;6.730;2023-11-21T01:08:43;19.23;;;5.95;;
51981;SDS011;37998;53.416;6.730;2023-11-21T01:11:09;23.83;;;5.88;;
51981;SDS011;37998;53.416;6.730;2023-11-21T01:13:38;26.50;;;7.28;;
51981;SDS011;37998;53.416;6.730;2023-11-21T01:16:05;20.63;;;6.25;;
51981;SDS011;37998;53.416;6.730;2023-11-21T01:18:37;19.05;;;5.88;;
51981;SDS011;37998;53.416;6.730;2023-11-21T01:21:03;25.13;;;6.47;;
51981;SDS011;37998;53.416;6.730;2023-11-21T01:23:30;26.02;;;7.05;;
51981;SDS011;37998;53.416;6.730;2023-11-21T01:25:56;21.90;;;6.15;;
51981;SDS011;37998;53.416;6.730;2023-11-21T01:28:22;18.55;;;5.43;;
51981;SDS011;37998;53.416;6.730;2023-11-21T01:30:48;24.67;;;6.47;;
51981;SDS011;37998;53.416;6.730;2023-11-21T01:33:15;23.30;;;6.80;;
51981;SDS011;37998;53.416;6.730;2023-11-21T01:35:41;26.77;;;6.45;;
51981;SDS011;37998;53.416;6.730;2023-11-21T01:38:08;24.33;;;6.88;;
51981;SDS011;37998;53.416;6.730;2023-11-21T01:40:34;20.35;;;5.95;;
51981;SDS011;37998;53.416;6.730;2023-11-21T01:43:00;27.60;;;7.18;;
51981;SDS011;37998;53.416;6.730;2023-11-21T01:45:28;25.48;;;6.45;;
51981;SDS011;37998;53.416;6.730;2023-11-21T01:47:56;18.45;;;6.60;;
51981;SDS011;37998;53.416;6.730;2023-11-21T01:50:26;25.85;;;6.38;;
51981;SDS011;37998;53.416;6.730;2023-11-21T01:52:53;20.08;;;6.50;;
51981;SDS011;37998;53.416;6.730;2023-11-21T01:55:19;19.25;;;6.00;;
51981;SDS011;37998;53.416;6.730;2023-11-21T01:57:46;17.58;;;5.43;;
51981;SDS011;37998;53.416;6.730;2023-11-21T02:00:12;25.83;;;6.95;;
51981;SDS011;37998;53.416;6.730;2023-11-21T02:02:45;23.67;;;6.78;;
51981;SDS011;37998;53.416;6.730;2023-11-21T02:05:12;19.17;;;6.15;;
51981;SDS011;37998;53.416;6.730;2023-11-21T02:07:40;18.58;;;6.68;;
51981;SDS011;37998;53.416;6.730;2023-11-21T02:10:08;21.90;;;7.63;;
51981;SDS011;37998;53.416;6.730;2023-11-21T02:12:35;18.55;;;7.38;;
51981;SDS011;37998;53.416;6.730;2023-11-21T02:15:05;21.25;;;7.70;;
51981;SDS011;37998;53.416;6.730;2023-11-21T02:20:01;22.23;;;7.30;;
51981;SDS011;37998;53.416;6.730;2023-11-21T02:22:30;18.40;;;7.55;;
51981;SDS011;37998;53.416;6.730;2023-11-21T02:24:57;17.50;;;6.97;;
51981;SDS011;37998;53.416;6.730;2023-11-21T02:27:23;15.20;;;6.47;;
51981;SDS011;37998;53.416;6.730;2023-11-21T02:29:50;21.92;;;7.88;;
51981;SDS011;37998;53.416;6.730;2023-11-21T02:32:16;25.25;;;7.47;;
51981;SDS011;37998;53.416;6.730;2023-11-21T02:34:48;22.77;;;7.22;;
51981;SDS011;37998;53.416;6.730;2023-11-21T02:37:15;20.52;;;7.38;;
51981;SDS011;37998;53.416;6.730;2023-11-21T02:39:41;22.60;;;7.35;;
51981;SDS011;37998;53.416;6.730;2023-11-21T02:42:07;26.85;;;7.45;;
51981;SDS011;37998;53.416;6.730;2023-11-21T02:44:33;15.23;;;6.80;;
51981;SDS011;37998;53.416;6.730;2023-11-21T02:47:00;21.42;;;7.18;;
51981;SDS011;37998;53.416;6.730;2023-11-21T02:49:26;20.65;;;7.30;;
51981;SDS011;37998;53.416;6.730;2023-11-21T02:51:54;19.45;;;7.65;;
51981;SDS011;37998;53.416;6.730;2023-11-21T02:54:20;24.98;;;7.97;;
51981;SDS011;37998;53.416;6.730;2023-11-21T02:56:49;25.10;;;7.38;;
51981;SDS011;37998;53.416;6.730;2023-11-21T02:59:15;20.23;;;7.90;;
51981;SDS011;37998;53.416;6.730;2023-11-21T03:01:41;20.92;;;7.40;;
51981;SDS011;37998;53.416;6.730;2023-11-21T03:04:07;17.50;;;7.03;;
51981;SDS011;37998;53.416;6.730;2023-11-21T03:06:33;22.70;;;7.03;;
51981;SDS011;37998;53.416;6.730;2023-11-21T03:08:59;21.98;;;7.05;;
51981;SDS011;37998;53.416;6.730;2023-11-21T03:11:25;21.48;;;6.88;;
51981;SDS011;37998;53.416;6.730;2023-11-21T03:13:51;21.00;;;6.90;;
51981;SDS011;37998;53.416;6.730;2023-11-21T03:16:18;24.35;;;8.02;;
51981;SDS011;37998;53.416;6.730;2023-11-21T03:18:45;28.55;;;8.05;;
51981;SDS011;37998;53.416;6.730;2023-11-21T03:21:12;27.95;;;8.38;;
51981;SDS011;37998;53.416;6.730;2023-11-21T03:23:38;38.70;;;8.10;;
51981;SDS011;37998;53.416;6.730;2023-11-21T03:26:05;26.77;;;8.00;;
51981;SDS011;37998;53.416;6.730;2023-11-21T03:28:34;23.23;;;7.63;;
51981;SDS011;37998;53.416;6.730;2023-11-21T03:31:01;29.98;;;7.70;;
51981;SDS011;37998;53.416;6.730;2023-11-21T03:33:27;26.77;;;8.38;;
51981;SDS011;37998;53.416;6.730;2023-11-21T03:35:53;36.13;;;8.13;;
51981;SDS011;37998;53.416;6.730;2023-11-21T03:38:19;39.58;;;10.00;;
51981;SDS011;37998;53.416;6.730;2023-11-21T03:40:46;32.97;;;8.95;;
51981;SDS011;37998;53.416;6.730;2023-11-21T03:43:13;39.30;;;10.60;;
51981;SDS011;37998;53.416;6.730;2023-11-21T03:45:39;38.88;;;11.50;;
51981;SDS011;37998;53.416;6.730;2023-11-21T03:48:06;39.33;;;11.38;;
51981;SDS011;37998;53.416;6.730;2023-11-21T03:50:32;37.90;;;11.77;;
51981;SDS011;37998;53.416;6.730;2023-11-21T03:52:58;50.67;;;13.00;;
51981;SDS011;37998;53.416;6.730;2023-11-21T03:55:24;40.42;;;13.77;;
51981;SDS011;37998;53.416;6.730;2023-11-21T03:57:50;41.38;;;14.10;;
51981;SDS011;37998;53.416;6.730;2023-11-21T04:00:18;52.05;;;14.93;;
51981;SDS011;37998;53.416;6.730;2023-11-21T04:02:47;38.85;;;13.05;;
51981;SDS011;37998;53.416;6.730;2023-11-21T04:05:13;43.80;;;13.27;;
51981;SDS011;37998;53.416;6.730;2023-11-21T04:07:39;44.20;;;13.38;;
51981;SDS011;37998;53.416;6.730;2023-11-21T04:10:06;41.83;;;13.23;;
51981;SDS011;37998;53.416;6.730;2023-11-21T04:12:37;36.42;;;12.50;;
51981;SDS011;37998;53.416;6.730;2023-11-21T04:15:03;45.13;;;12.68;;
51981;SDS011;37998;53.416;6.730;2023-11-21T04:17:29;34.10;;;12.27;;
51981;SDS011;37998;53.416;6.730;2023-11-21T04:19:56;41.60;;;14.13;;
51981;SDS011;37998;53.416;6.730;2023-11-21T04:22:22;48.45;;;13.15;;
51981;SDS011;37998;53.416;6.730;2023-11-21T04:24:48;24.98;;;11.35;;
51981;SDS011;37998;53.416;6.730;2023-11-21T04:27:14;31.65;;;11.68;;
51981;SDS011;37998;53.416;6.730;2023-11-21T04:29:40;29.88;;;11.10;;
51981;SDS011;37998;53.416;6.730;2023-11-21T04:32:06;25.15;;;10.75;;
51981;SDS011;37998;53.416;6.730;2023-11-21T04:34:33;26.08;;;10.43;;
51981;SDS011;37998;53.416;6.730;2023-11-21T04:37:00;19.92;;;9.35;;
51981;SDS011;37998;53.416;6.730;2023-11-21T04:39:26;19.55;;;10.05;;
51981;SDS011;37998;53.416;6.730;2023-11-21T04:41:52;21.17;;;11.00;;
51981;SDS011;37998;53.416;6.730;2023-11-21T04:44:18;19.13;;;11.50;;
51981;SDS011;37998;53.416;6.730;2023-11-21T04:46:43;24.88;;;12.27;;
51981;SDS011;37998;53.416;6.730;2023-11-21T04:49:09;21.98;;;12.25;;
51981;SDS011;37998;53.416;6.730;2023-11-21T04:51:36;20.25;;;11.35;;
51981;SDS011;37998;53.416;6.730;2023-11-21T04:54:02;25.58;;;12.88;;
51981;SDS011;37998;53.416;6.730;2023-11-21T04:56:28;21.38;;;12.20;;
51981;SDS011;37998;53.416;6.730;2023-11-21T04:58:54;24.40;;;13.65;;
51981;SDS011;37998;53.416;6.730;2023-11-21T05:01:20;27.70;;;14.48;;
51981;SDS011;37998;53.416;6.730;2023-11-21T05:03:46;29.42;;;15.57;;
51981;SDS011;37998;53.416;6.730;2023-11-21T05:06:12;31.02;;;15.13;;
51981;SDS011;37998;53.416;6.730;2023-11-21T05:08:39;32.97;;;17.17;;
51981;SDS011;37998;53.416;6.730;2023-11-21T05:11:05;33.90;;;17.30;;
51981;SDS011;37998;53.416;6.730;2023-11-21T05:13:36;34.30;;;18.10;;
51981;SDS011;37998;53.416;6.730;2023-11-21T05:16:02;39.33;;;19.92;;
51981;SDS011;37998;53.416;6.730;2023-11-21T05:18:31;35.03;;;19.00;;
51981;SDS011;37998;53.416;6.730;2023-11-21T05:20:57;38.10;;;18.67;;
51981;SDS011;37998;53.416;6.730;2023-11-21T05:23:23;36.08;;;19.98;;
51981;SDS011;37998;53.416;6.730;2023-11-21T05:25:50;39.67;;;19.42;;
51981;SDS011;37998;53.416;6.730;2023-11-21T05:28:15;37.75;;;20.23;;
51981;SDS011;37998;53.416;6.730;2023-11-21T05:30:41;35.22;;;18.95;;
51981;SDS011;37998;53.416;6.730;2023-11-21T05:33:07;37.08;;;19.70;;
51981;SDS011;37998;53.416;6.730;2023-11-21T05:35:33;42.53;;;21.20;;
51981;SDS011;37998;53.416;6.730;2023-11-21T05:37:59;34.22;;;19.23;;
51981;SDS011;37998;53.416;6.730;2023-11-21T05:40:25;36.33;;;19.20;;
51981;SDS011;37998;53.416;6.730;2023-11-21T05:42:54;33.80;;;19.08;;
51981;SDS011;37998;53.416;6.730;2023-11-21T05:45:21;33.13;;;20.00;;
51981;SDS011;37998;53.416;6.730;2023-11-21T05:47:47;32.28;;;19.38;;
51981;SDS011;37998;53.416;6.730;2023-11-21T05:50:13;31.15;;;18.70;;
51981;SDS011;37998;53.416;6.730;2023-11-21T05:52:41;28.40;;;17.38;;
51981;SDS011;37998;53.416;6.730;2023-11-21T05:55:08;31.30;;;18.15;;
51981;SDS011;37998;53.416;6.730;2023-11-21T05:57:34;29.63;;;17.90;;
51981;SDS011;37998;53.416;6.730;2023-11-21T06:00:05;28.83;;;17.83;;
51981;SDS011;37998;53.416;6.730;2023-11-21T06:02:48;28.88;;;17.10;;
51981;SDS011;37998;53.416;6.730;2023-11-21T06:05:24;24.77;;;17.08;;
51981;SDS011;37998;53.416;6.730;2023-11-21T06:07:51;29.15;;;17.98;;
51981;SDS011;37998;53.416;6.730;2023-11-21T06:10:19;25.13;;;16.80;;
51981;SDS011;37998;53.416;6.730;2023-11-21T06:12:46;23.80;;;16.00;;
51981;SDS011;37998;53.416;6.730;2023-11-21T06:15:12;25.00;;;17.15;;
51981;SDS011;37998;53.416;6.730;2023-11-21T06:17:44;27.77;;;18.45;;
51981;SDS011;37998;53.416;6.730;2023-11-21T06:20:14;26.80;;;17.92;;
51981;SDS011;37998;53.416;6.730;2023-11-21T06:22:41;26.33;;;17.20;;
51981;SDS011;37998;53.416;6.730;2023-11-21T06:25:08;26.65;;;18.75;;
51981;SDS011;37998;53.416;6.730;2023-11-21T06:27:39;28.13;;;18.63;;
51981;SDS011;37998;53.416;6.730;2023-11-21T06:30:08;27.10;;;18.87;;
51981;SDS011;37998;53.416;6.730;2023-11-21T06:32:35;28.80;;;18.88;;
51981;SDS011;37998;53.416;6.730;2023-11-21T06:35:02;26.83;;;16.95;;
51981;SDS011;37998;53.416;6.730;2023-11-21T06:37:29;26.83;;;18.73;;
51981;SDS011;37998;53.416;6.730;2023-11-21T06:39:56;25.33;;;17.83;;
51981;SDS011;37998;53.416;6.730;2023-11-21T06:42:23;28.77;;;18.10;;
51981;SDS011;37998;53.416;6.730;2023-11-21T06:44:54;27.48;;;18.88;;
51981;SDS011;37998;53.416;6.730;2023-11-21T06:47:22;29.55;;;19.73;;
51981;SDS011;37998;53.416;6.730;2023-11-21T06:49:52;27.65;;;19.40;;
51981;SDS011;37998;53.416;6.730;2023-11-21T06:52:18;28.40;;;18.77;;
51981;SDS011;37998;53.416;6.730;2023-11-21T06:54:45;25.55;;;17.80;;
51981;SDS011;37998;53.416;6.730;2023-11-21T06:57:14;24.85;;;16.63;;
51981;SDS011;37998;53.416;6.730;2023-11-21T06:59:40;22.92;;;17.20;;
51981;SDS011;37998;53.416;6.730;2023-11-21T07:02:07;22.77;;;16.80;;
51981;SDS011;37998;53.416;6.730;2023-11-21T07:04:33;23.58;;;17.35;;
51981;SDS011;37998;53.416;6.730;2023-11-21T07:06:59;19.80;;;15.80;;
51981;SDS011;37998;53.416;6.730;2023-11-21T07:09:25;20.00;;;15.98;;
51981;SDS011;37998;53.416;6.730;2023-11-21T07:11:52;21.70;;;15.55;;
51981;SDS011;37998;53.416;6.730;2023-11-21T07:14:18;19.55;;;15.68;;
51981;SDS011;37998;53.416;6.730;2023-11-21T07:16:45;22.02;;;15.48;;
51981;SDS011;37998;53.416;6.730;2023-11-21T07:19:11;21.25;;;15.20;;
51981;SDS011;37998;53.416;6.730;2023-11-21T07:21:38;22.58;;;15.43;;
51981;SDS011;37998;53.416;6.730;2023-11-21T07:24:04;17.65;;;14.52;;
51981;SDS011;37998;53.416;6.730;2023-11-21T07:26:32;20.35;;;15.00;;
51981;SDS011;37998;53.416;6.730;2023-11-21T07:28:59;19.95;;;15.48;;
51981;SDS011;37998;53.416;6.730;2023-11-21T07:31:26;19.33;;;13.68;;
51981;SDS011;37998;53.416;6.730;2023-11-21T07:33:52;19.48;;;13.82;;
51981;SDS011;37998;53.416;6.730;2023-11-21T07:36:19;19.40;;;14.27;;
51981;SDS011;37998;53.416;6.730;2023-11-21T07:38:46;18.70;;;14.80;;
51981;SDS011;37998;53.416;6.730;2023-11-21T07:41:12;18.85;;;13.88;;
51981;SDS011;37998;53.416;6.730;2023-11-21T07:43:44;17.55;;;13.65;;
51981;SDS011;37998;53.416;6.730;2023-11-21T07:46:11;15.73;;;13.13;;
51981;SDS011;37998;53.416;6.730;2023-11-21T07:48:38;19.02;;;12.68;;
51981;SDS011;37998;53.416;6.730;2023-11-21T07:51:07;15.88;;;12.68;;
51981;SDS011;37998;53.416;6.730;2023-11-21T07:53:35;16.95;;;13.35;;
51981;SDS011;37998;53.416;6.730;2023-11-21T07:56:07;15.77;;;13.02;;
51981;SDS011;37998;53.416;6.730;2023-11-21T07:58:34;18.40;;;13.32;;
51981;SDS011;37998;53.416;6.730;2023-11-21T08:01:01;16.63;;;13.65;;
51981;SDS011;37998;53.416;6.730;2023-11-21T08:03:28;17.60;;;13.23;;
51981;SDS011;37998;53.416;6.730;2023-11-21T08:05:58;19.77;;;14.20;;
51981;SDS011;37998;53.416;6.730;2023-11-21T08:08:25;17.77;;;14.25;;
51981;SDS011;37998;53.416;6.730;2023-11-21T08:10:52;17.40;;;13.13;;
51981;SDS011;37998;53.416;6.730;2023-11-21T08:13:24;20.05;;;14.27;;
51981;SDS011;37998;53.416;6.730;2023-11-21T08:15:50;15.45;;;12.88;;
51981;SDS011;37998;53.416;6.730;2023-11-21T08:18:19;16.63;;;13.55;;
51981;SDS011;37998;53.416;6.730;2023-11-21T08:20:44;18.88;;;14.70;;
51981;SDS011;37998;53.416;6.730;2023-11-21T08:23:13;20.10;;;14.30;;
51981;SDS011;37998;53.416;6.730;2023-11-21T08:25:41;20.88;;;15.27;;
51981;SDS011;37998;53.416;6.730;2023-11-21T08:28:08;20.75;;;15.18;;
51981;SDS011;37998;53.416;6.730;2023-11-21T08:30:34;16.92;;;13.48;;
51981;SDS011;37998;53.416;6.730;2023-11-21T08:33:00;16.67;;;13.50;;
51981;SDS011;37998;53.416;6.730;2023-11-21T08:35:27;18.75;;;13.15;;
51981;SDS011;37998;53.416;6.730;2023-11-21T08:37:53;16.77;;;12.48;;
51981;SDS011;37998;53.416;6.730;2023-11-21T08:40:19;16.02;;;11.55;;
51981;SDS011;37998;53.416;6.730;2023-11-21T08:42:46;14.38;;;11.93;;
51981;SDS011;37998;53.416;6.730;2023-11-21T08:45:13;13.75;;;12.02;;
51981;SDS011;37998;53.416;6.730;2023-11-21T08:47:43;15.50;;;11.23;;
51981;SDS011;37998;53.416;6.730;2023-11-21T08:50:09;15.18;;;11.05;;
51981;SDS011;37998;53.416;6.730;2023-11-21T08:52:41;12.02;;;9.85;;
51981;SDS011;37998;53.416;6.730;2023-11-21T08:55:08;14.00;;;10.45;;
51981;SDS011;37998;53.416;6.730;2023-11-21T08:57:38;14.20;;;10.65;;
51981;SDS011;37998;53.416;6.730;2023-11-21T09:00:06;13.35;;;10.05;;
51981;SDS011;37998;53.416;6.730;2023-11-21T09:02:37;13.82;;;10.25;;
51981;SDS011;37998;53.416;6.730;2023-11-21T09:05:06;12.23;;;9.57;;
51981;SDS011;37998;53.416;6.730;2023-11-21T09:07:34;12.25;;;8.95;;
51981;SDS011;37998;53.416;6.730;2023-11-21T09:10:01;10.05;;;8.02;;
51981;SDS011;37998;53.416;6.730;2023-11-21T09:12:28;10.32;;;8.48;;
51981;SDS011;37998;53.416;6.730;2023-11-21T09:14:54;9.65;;;7.82;;
51981;SDS011;37998;53.416;6.730;2023-11-21T09:17:20;9.82;;;7.43;;
51981;SDS011;37998;53.416;6.730;2023-11-21T09:19:46;10.10;;;8.05;;
51981;SDS011;37998;53.416;6.730;2023-11-21T09:22:15;11.57;;;8.23;;
51981;SDS011;37998;53.416;6.730;2023-11-21T09:24:42;10.60;;;8.45;;
51981;SDS011;37998;53.416;6.730;2023-11-21T09:27:08;9.80;;;8.05;;
51981;SDS011;37998;53.416;6.730;2023-11-21T09:29:35;11.32;;;8.70;;
51981;SDS011;37998;53.416;6.730;2023-11-21T09:32:03;15.07;;;8.20;;
51981;SDS011;37998;53.416;6.730;2023-11-21T09:34:33;12.40;;;7.97;;
51981;SDS011;37998;53.416;6.730;2023-11-21T09:37:03;11.10;;;7.68;;
51981;SDS011;37998;53.416;6.730;2023-11-21T09:39:31;10.93;;;7.60;;
51981;SDS011;37998;53.416;6.730;2023-11-21T09:42:04;13.60;;;8.82;;
51981;SDS011;37998;53.416;6.730;2023-11-21T09:44:39;9.88;;;8.25;;
51981;SDS011;37998;53.416;6.730;2023-11-21T09:47:10;9.43;;;7.18;;
51981;SDS011;37998;53.416;6.730;2023-11-21T09:49:42;9.38;;;7.60;;
51981;SDS011;37998;53.416;6.730;2023-11-21T09:52:18;10.10;;;7.32;;
51981;SDS011;37998;53.416;6.730;2023-11-21T09:54:54;7.70;;;6.47;;
51981;SDS011;37998;53.416;6.730;2023-11-21T09:57:24;9.35;;;6.90;;
51981;SDS011;37998;53.416;6.730;2023-11-21T09:59:53;9.55;;;6.97;;
51981;SDS011;37998;53.416;6.730;2023-11-21T10:02:27;8.68;;;6.72;;
51981;SDS011;37998;53.416;6.730;2023-11-21T10:04:58;10.52;;;7.07;;
51981;SDS011;37998;53.416;6.730;2023-11-21T10:07:25;7.78;;;6.22;;
51981;SDS011;37998;53.416;6.730;2023-11-21T10:09:53;8.27;;;6.60;;
51981;SDS011;37998;53.416;6.730;2023-11-21T10:12:20;8.15;;;6.80;;
51981;SDS011;37998;53.416;6.730;2023-11-21T10:14:49;11.48;;;7.13;;
51981;SDS011;37998;53.416;6.730;2023-11-21T10:17:18;8.30;;;6.55;;
51981;SDS011;37998;53.416;6.730;2023-11-21T10:19:48;9.52;;;7.50;;
51981;SDS011;37998;53.416;6.730;2023-11-21T10:22:16;8.77;;;6.65;;
51981;SDS011;37998;53.416;6.730;2023-11-21T10:24:42;8.30;;;5.57;;
51981;SDS011;37998;53.416;6.730;2023-11-21T10:27:09;8.45;;;6.72;;
51981;SDS011;37998;53.416;6.730;2023-11-21T10:29:34;8.60;;;5.82;;
51981;SDS011;37998;53.416;6.730;2023-11-21T10:32:04;7.95;;;5.93;;
51981;SDS011;37998;53.416;6.730;2023-11-21T10:34:30;8.05;;;5.97;;
51981;SDS011;37998;53.416;6.730;2023-11-21T10:36:57;8.45;;;6.43;;
51981;SDS011;37998;53.416;6.730;2023-11-21T10:39:23;11.10;;;5.93;;
51981;SDS011;37998;53.416;6.730;2023-11-21T10:41:54;9.25;;;6.18;;
51981;SDS011;37998;53.416;6.730;2023-11-21T10:44:20;9.68;;;5.85;;
51981;SDS011;37998;53.416;6.730;2023-11-21T10:46:48;7.05;;;5.78;;
51981;SDS011;37998;53.416;6.730;2023-11-21T10:49:26;8.05;;;5.60;;
51981;SDS011;37998;53.416;6.730;2023-11-21T10:51:53;7.50;;;6.47;;
51981;SDS011;37998;53.416;6.730;2023-11-21T10:54:19;8.73;;;6.00;;
51981;SDS011;37998;53.416;6.730;2023-11-21T10:56:49;8.70;;;6.97;;
51981;SDS011;37998;53.416;6.730;2023-11-21T10:59:16;9.02;;;6.55;;
51981;SDS011;37998;53.416;6.730;2023-11-21T11:01:46;8.27;;;6.13;;
51981;SDS011;37998;53.416;6.730;2023-11-21T11:04:15;8.88;;;6.43;;
51981;SDS011;37998;53.416;6.730;2023-11-21T11:06:44;11.95;;;7.35;;
51981;SDS011;37998;53.416;6.730;2023-11-21T11:09:16;13.05;;;6.70;;
51981;SDS011;37998;53.416;6.730;2023-11-21T11:11:43;8.07;;;6.97;;
51981;SDS011;37998;53.416;6.730;2023-11-21T11:14:12;9.38;;;7.32;;
51981;SDS011;37998;53.416;6.730;2023-11-21T11:16:39;12.35;;;7.35;;
51981;SDS011;37998;53.416;6.730;2023-11-21T11:19:09;9.43;;;7.10;;
51981;SDS011;37998;53.416;6.730;2023-11-21T11:21:43;10.70;;;7.15;;
51981;SDS011;37998;53.416;6.730;2023-11-21T11:24:13;9.50;;;6.75;;
51981;SDS011;37998;53.416;6.730;2023-11-21T11:26:58;10.60;;;7.30;;
51981;SDS011;37998;53.416;6.730;2023-11-21T11:29:41;10.85;;;7.40;;
51981;SDS011;37998;53.416;6.730;2023-11-21T11:37:48;11.73;;;6.78;;
51981;SDS011;37998;53.416;6.730;2023-11-21T11:40:14;11.00;;;7.80;;
51981;SDS011;37998;53.416;6.730;2023-11-21T11:42:54;10.65;;;7.25;;
51981;SDS011;37998;53.416;6.730;2023-11-21T11:45:32;10.55;;;8.45;;
51981;SDS011;37998;53.416;6.730;2023-11-21T11:48:02;10.48;;;8.50;;
51981;SDS011;37998;53.416;6.730;2023-11-21T11:50:29;11.40;;;8.88;;
51981;SDS011;37998;53.416;6.730;2023-11-21T11:52:55;11.85;;;9.45;;
51981;SDS011;37998;53.416;6.730;2023-11-21T11:55:36;15.38;;;9.05;;
51981;SDS011;37998;53.416;6.730;2023-11-21T11:58:04;11.48;;;7.82;;
51981;SDS011;37998;53.416;6.730;2023-11-21T12:02:59;8.90;;;7.50;;
51981;SDS011;37998;53.416;6.730;2023-11-21T12:05:28;9.80;;;7.35;;
51981;SDS011;37998;53.416;6.730;2023-11-21T12:08:15;10.90;;;7.47;;
51981;SDS011;37998;53.416;6.730;2023-11-21T12:10:41;11.77;;;8.20;;
51981;SDS011;37998;53.416;6.730;2023-11-21T12:13:09;8.27;;;6.55;;
51981;SDS011;37998;53.416;6.730;2023-11-21T12:15:37;9.57;;;7.32;;
51981;SDS011;37998;53.416;6.730;2023-11-21T12:18:04;7.85;;;6.15;;
51981;SDS011;37998;53.416;6.730;2023-11-21T12:20:30;9.48;;;7.07;;
51981;SDS011;37998;53.416;6.730;2023-11-21T12:22:58;7.75;;;6.38;;
51981;SDS011;37998;53.416;6.730;2023-11-21T12:25:25;10.80;;;5.93;;
51981;SDS011;37998;53.416;6.730;2023-11-21T12:27:59;11.07;;;7.50;;
51981;SDS011;37998;53.416;6.730;2023-11-21T12:30:26;9.45;;;7.05;;
51981;SDS011;37998;53.416;6.730;2023-11-21T12:32:56;6.22;;;5.30;;
51981;SDS011;37998;53.416;6.730;2023-11-21T12:35:33;5.90;;;4.80;;
51981;SDS011;37998;53.416;6.730;2023-11-21T12:38:01;9.35;;;5.75;;
51981;SDS011;37998;53.416;6.730;2023-11-21T12:40:28;8.35;;;5.20;;
51981;SDS011;37998;53.416;6.730;2023-11-21T12:42:55;9.45;;;5.45;;
51981;SDS011;37998;53.416;6.730;2023-11-21T12:45:23;8.73;;;5.93;;
51981;SDS011;37998;53.416;6.730;2023-11-21T12:50:28;5.47;;;4.38;;
51981;SDS011;37998;53.416;6.730;2023-11-21T12:53:00;7.82;;;4.75;;
51981;SDS011;37998;53.416;6.730;2023-11-21T12:55:43;7.80;;;4.40;;
51981;SDS011;37998;53.416;6.730;2023-11-21T12:58:15;6.68;;;4.43;;
51981;SDS011;37998;53.416;6.730;2023-11-21T13:00:45;11.20;;;5.30;;
51981;SDS011;37998;53.416;6.730;2023-11-21T13:03:13;8.93;;;4.78;;
51981;SDS011;37998;53.416;6.730;2023-11-21T13:05:49;8.80;;;4.88;;
51981;SDS011;37998;53.416;6.730;2023-11-21T13:08:20;8.23;;;5.18;;
51981;SDS011;37998;53.416;6.730;2023-11-21T13:10:49;7.88;;;5.38;;
51981;SDS011;37998;53.416;6.730;2023-11-21T13:13:17;8.52;;;4.60;;
51981;SDS011;37998;53.416;6.730;2023-11-21T13:15:53;6.75;;;4.38;;
51981;SDS011;37998;53.416;6.730;2023-11-21T13:18:25;9.68;;;4.53;;
51981;SDS011;37998;53.416;6.730;2023-11-21T13:20:56;8.52;;;4.38;;
51981;SDS011;37998;53.416;6.730;2023-11-21T13:23:24;5.00;;;3.72;;
51981;SDS011;37998;53.416;6.730;2023-11-21T13:25:51;6.38;;;3.83;;
51981;SDS011;37998;53.416;6.730;2023-11-21T13:28:18;8.30;;;4.22;;
51981;SDS011;37998;53.416;6.730;2023-11-21T13:30:46;5.70;;;4.05;;
51981;SDS011;37998;53.416;6.730;2023-11-21T13:33:13;8.45;;;3.92;;
51981;SDS011;37998;53.416;6.730;2023-11-21T13:38:17;5.63;;;3.50;;
51981;SDS011;37998;53.416;6.730;2023-11-21T13:40:51;5.75;;;3.50;;
51981;SDS011;37998;53.416;6.730;2023-11-21T13:43:22;7.45;;;3.42;;
51981;SDS011;37998;53.416;6.730;2023-11-21T13:45:51;4.47;;;3.35;;
51981;SDS011;37998;53.416;6.730;2023-11-21T13:48:28;7.85;;;3.72;;
51981;SDS011;37998;53.416;6.730;2023-11-21T13:51:03;5.93;;;3.40;;
51981;SDS011;37998;53.416;6.730;2023-11-21T13:53:44;6.13;;;3.78;;
51981;SDS011;37998;53.416;6.730;2023-11-21T13:56:13;6.97;;;3.95;;
51981;SDS011;37998;53.416;6.730;2023-11-21T13:58:43;5.50;;;4.00;;
51981;SDS011;37998;53.416;6.730;2023-11-21T14:01:17;5.38;;;4.00;;
51981;SDS011;37998;53.416;6.730;2023-11-21T14:04:03;5.93;;;4.22;;
51981;SDS011;37998;53.416;6.730;2023-11-21T14:06:48;4.72;;;3.88;;
51981;SDS011;37998;53.416;6.730;2023-11-21T14:09:17;9.52;;;3.47;;
51981;SDS011;37998;53.416;6.730;2023-11-21T14:12:01;4.22;;;3.00;;
51981;SDS011;37998;53.416;6.730;2023-11-21T14:14:31;5.78;;;3.13;;
51981;SDS011;37998;53.416;6.730;2023-11-21T14:16:57;5.00;;;3.40;;
51981;SDS011;37998;53.416;6.730;2023-11-21T14:19:24;6.97;;;3.72;;
51981;SDS011;37998;53.416;6.730;2023-11-21T14:21:56;5.85;;;3.50;;
51981;SDS011;37998;53.416;6.730;2023-11-21T14:24:22;7.97;;;3.45;;
51981;SDS011;37998;53.416;6.730;2023-11-21T14:26:49;7.05;;;3.65;;
51981;SDS011;37998;53.416;6.730;2023-11-21T14:29:17;5.68;;;4.32;;
51981;SDS011;37998;53.416;6.730;2023-11-21T14:31:45;5.90;;;3.80;;
51981;SDS011;37998;53.416;6.730;2023-11-21T14:34:12;7.85;;;4.00;;
51981;SDS011;37998;53.416;6.730;2023-11-21T14:36:39;4.18;;;3.53;;
51981;SDS011;37998;53.416;6.730;2023-11-21T14:39:05;6.07;;;4.00;;
51981;SDS011;37998;53.416;6.730;2023-11-21T14:41:34;4.78;;;3.20;;
51981;SDS011;37998;53.416;6.730;2023-11-21T14:44:01;4.80;;;3.25;;
51981;SDS011;37998;53.416;6.730;2023-11-21T14:46:29;6.32;;;3.65;;
51981;SDS011;37998;53.416;6.730;2023-11-21T14:48:56;7.97;;;3.90;;
51981;SDS011;37998;53.416;6.730;2023-11-21T14:51:26;7.70;;;3.85;;
51981;SDS011;37998;53.416;6.730;2023-11-21T14:53:57;11.20;;;3.95;;